Quantum Of The Seas — C6BH8 — position and weather

sailwx.info

Track history (hours):
 
Tides and Currents Weather Stations Pressure Air Temp Water Temp Dewpoint Dewpoint Depression Visibility Wind Speed Wind Dir Waves Ship Positions

Quantum Of The Seas

Last reported at 2019-Jan-22 10:52 UTC. Time now 2019-Jan-23 19:10 UTC.
Position N 31°12' E 122°09'.

Length 348 m; draft 9 m.

Type: Passenger vessel. MMSI: 311000267.

Date/timePositionNaut miles runAvg speedWind from/ knotsBaromVisibWave heightAir tempDewpointWater temp
2019-Jan-22 10:52N 31°12' E 122°09'614.4
2019-Jan-22 10:27N 31°14' E 122°02'714.7
2019-Jan-22 10:01N 31°16' E 121°55'13 0.8
2019-Jan-21 16:33N 31°21' E 121°40'0 9.3
2019-Jan-21 16:30N 31°20' E 121°41'510.0
2019-Jan-21 16:00N 31°18' E 121°46'5 9.6
2019-Jan-21 15:30N 31°16' E 121°51'510.5
2019-Jan-21 15:00N 31°15' E 121°57'510.6
2019-Jan-21 14:30N 31°14' E 122°03'510.8
2019-Jan-21 14:00N 31°12' E 122°09'611.8
2019-Jan-21 13:30N 31°08' E 122°15'510.9
2019-Jan-21 13:00N 31°06' E 122°21'510.3
2019-Jan-21 12:29N 31°07' E 122°27'4 7.0
2019-Jan-21 11:55N 31°07' E 122°31'713.5
2019-Jan-21 11:23N 31°07' E 122°40'  
2019-Jan-18 16:00N 31°07' E 122°16'1013.5
2019-Jan-18 15:17N 31°13' E 122°07'411.9
2019-Jan-18 14:58N 31°14' E 122°03'612.7
2019-Jan-18 14:29N 31°15' E 121°56'713.8
2019-Jan-18 13:57N 31°18' E 121°48'146 5.1
2019-Jan-17 09:00N 30°00' E 124°12'   360 / 331027.3 5.4 8.0 1.916.0
Track history (hours):
 
Tides and Currents Weather Stations Pressure Air Temp Water Temp Dewpoint Dewpoint Depression Visibility Wind Speed Wind Dir Waves Ship Positions

Quantum Of The Seas

Last reported at 2019-Jan-22 10:52 UTC. Time now 2019-Jan-23 19:10 UTC.
Position N 31°12' E 122°09'.

Length 348 m; draft 9 m.

Type: Passenger vessel. MMSI: 311000267.

Date/timePositionNaut miles runAvg speedWind from/ knotsBaromVisibWave heightAir tempDewpointWater temp
2019-Jan-22 10:52N 31°12' E 122°09'614.4
2019-Jan-22 10:27N 31°14' E 122°02'714.7
2019-Jan-22 10:01N 31°16' E 121°55'13 0.8
2019-Jan-21 16:33N 31°21' E 121°40'0 9.3
2019-Jan-21 16:30N 31°20' E 121°41'510.0
2019-Jan-21 16:00N 31°18' E 121°46'5 9.6
2019-Jan-21 15:30N 31°16' E 121°51'510.5
2019-Jan-21 15:00N 31°15' E 121°57'510.6
2019-Jan-21 14:30N 31°14' E 122°03'510.8
2019-Jan-21 14:00N 31°12' E 122°09'611.8
2019-Jan-21 13:30N 31°08' E 122°15'510.9
2019-Jan-21 13:00N 31°06' E 122°21'510.3
2019-Jan-21 12:29N 31°07' E 122°27'4 7.0
2019-Jan-21 11:55N 31°07' E 122°31'713.5
2019-Jan-21 11:23N 31°07' E 122°40'  
2019-Jan-18 16:00N 31°07' E 122°16'1013.5
2019-Jan-18 15:17N 31°13' E 122°07'411.9
2019-Jan-18 14:58N 31°14' E 122°03'612.7
2019-Jan-18 14:29N 31°15' E 121°56'713.8
2019-Jan-18 13:57N 31°18' E 121°48'146 5.1
2019-Jan-17 09:00N 30°00' E 124°12'   360 / 331027.3 5.4 8.0 1.916.0

Dump ship's entire track history